sensor_id;sensor_type;location;lat;lon;timestamp;pressure;altitude;pressure_sealevel;temperature
19102;BMP280;9683;49.028;12.064;2022-11-11T00:01:53;98754.06;;;10.11
19102;BMP280;9683;49.028;12.064;2022-11-11T00:04:20;98753.44;;;10.09
19102;BMP280;9683;49.028;12.064;2022-11-11T00:06:47;98749.19;;;10.00
19102;BMP280;9683;49.028;12.064;2022-11-11T00:09:13;98749.56;;;9.97
19102;BMP280;9683;49.028;12.064;2022-11-11T00:11:40;98738.94;;;9.97
19102;BMP280;9683;49.028;12.064;2022-11-11T00:14:06;98738.75;;;9.98
19102;BMP280;9683;49.028;12.064;2022-11-11T00:16:33;98732.41;;;9.99
19102;BMP280;9683;49.028;12.064;2022-11-11T00:19:15;98730.41;;;10.01
19102;BMP280;9683;49.028;12.064;2022-11-11T00:21:59;98737.75;;;9.99
19102;BMP280;9683;49.028;12.064;2022-11-11T00:24:43;98745.72;;;9.99
19102;BMP280;9683;49.028;12.064;2022-11-11T00:27:27;98750.19;;;9.99
19102;BMP280;9683;49.028;12.064;2022-11-11T00:29:55;98766.81;;;10.01
19102;BMP280;9683;49.028;12.064;2022-11-11T00:32:21;98760.97;;;10.05
19102;BMP280;9683;49.028;12.064;2022-11-11T00:34:49;98759.75;;;10.08
19102;BMP280;9683;49.028;12.064;2022-11-11T00:37:31;98754.63;;;10.06
19102;BMP280;9683;49.028;12.064;2022-11-11T00:39:57;98764.41;;;10.06
19102;BMP280;9683;49.028;12.064;2022-11-11T00:42:24;98758.47;;;10.04
19102;BMP280;9683;49.028;12.064;2022-11-11T00:44:51;98757.81;;;10.02
19102;BMP280;9683;49.028;12.064;2022-11-11T00:47:17;98758.84;;;10.01
19102;BMP280;9683;49.028;12.064;2022-11-11T00:50:05;98757.00;;;10.01
19102;BMP280;9683;49.028;12.064;2022-11-11T00:52:49;98762.66;;;9.98
19102;BMP280;9683;49.028;12.064;2022-11-11T00:55:16;98765.69;;;9.95
19102;BMP280;9683;49.028;12.064;2022-11-11T00:57:42;98759.56;;;9.95
19102;BMP280;9683;49.028;12.064;2022-11-11T01:00:10;98759.72;;;9.93
19102;BMP280;9683;49.028;12.064;2022-11-11T01:02:37;98753.78;;;9.91
19102;BMP280;9683;49.028;12.064;2022-11-11T01:05:06;98749.66;;;9.89
19102;BMP280;9683;49.028;12.064;2022-11-11T01:07:32;98746.88;;;9.82
19102;BMP280;9683;49.028;12.064;2022-11-11T01:09:59;98751.72;;;9.79
19102;BMP280;9683;49.028;12.064;2022-11-11T01:12:26;98752.44;;;9.73
19102;BMP280;9683;49.028;12.064;2022-11-11T01:14:52;98751.63;;;9.72
19102;BMP280;9683;49.028;12.064;2022-11-11T01:17:19;98740.16;;;9.72
19102;BMP280;9683;49.028;12.064;2022-11-11T01:19:46;98741.78;;;9.73
19102;BMP280;9683;49.028;12.064;2022-11-11T01:22:14;98747.13;;;9.73
19102;BMP280;9683;49.028;12.064;2022-11-11T01:24:40;98740.16;;;9.72
19102;BMP280;9683;49.028;12.064;2022-11-11T01:27:07;98743.66;;;9.72
19102;BMP280;9683;49.028;12.064;2022-11-11T01:29:33;98745.28;;;9.73
19102;BMP280;9683;49.028;12.064;2022-11-11T01:32:00;98742.63;;;9.73
19102;BMP280;9683;49.028;12.064;2022-11-11T01:34:26;98755.91;;;9.73
19102;BMP280;9683;49.028;12.064;2022-11-11T01:36:53;98743.47;;;9.74
19102;BMP280;9683;49.028;12.064;2022-11-11T01:39:21;98746.56;;;9.77
19102;BMP280;9683;49.028;12.064;2022-11-11T01:41:47;98737.97;;;9.75
19102;BMP280;9683;49.028;12.064;2022-11-11T01:44:19;98735.31;;;9.75
19102;BMP280;9683;49.028;12.064;2022-11-11T01:46:49;98744.75;;;9.78
19102;BMP280;9683;49.028;12.064;2022-11-11T01:49:27;98744.38;;;9.81
19102;BMP280;9683;49.028;12.064;2022-11-11T01:52:00;98741.09;;;9.79
19102;BMP280;9683;49.028;12.064;2022-11-11T01:54:33;98737.78;;;9.77
19102;BMP280;9683;49.028;12.064;2022-11-11T01:57:03;98739.97;;;9.73
19102;BMP280;9683;49.028;12.064;2022-11-11T01:59:33;98737.69;;;9.70
19102;BMP280;9683;49.028;12.064;2022-11-11T02:02:02;98742.00;;;9.71
19102;BMP280;9683;49.028;12.064;2022-11-11T02:04:32;98751.44;;;9.74
19102;BMP280;9683;49.028;12.064;2022-11-11T02:07:17;98757.88;;;9.79
19102;BMP280;9683;49.028;12.064;2022-11-11T02:09:46;98753.38;;;9.80
19102;BMP280;9683;49.028;12.064;2022-11-11T02:12:13;98754.84;;;9.82
19102;BMP280;9683;49.028;12.064;2022-11-11T02:14:58;98759.47;;;9.88
19102;BMP280;9683;49.028;12.064;2022-11-11T02:17:27;98762.56;;;9.92
19102;BMP280;9683;49.028;12.064;2022-11-11T02:19:57;98767.69;;;9.93
19102;BMP280;9683;49.028;12.064;2022-11-11T02:22:32;98762.22;;;9.95
19102;BMP280;9683;49.028;12.064;2022-11-11T02:25:09;98774.66;;;9.94
19102;BMP280;9683;49.028;12.064;2022-11-11T02:27:40;98772.69;;;9.96
19102;BMP280;9683;49.028;12.064;2022-11-11T02:30:09;98772.00;;;9.94
19102;BMP280;9683;49.028;12.064;2022-11-11T02:32:41;98780.00;;;9.94
19102;BMP280;9683;49.028;12.064;2022-11-11T02:35:13;98774.88;;;9.93
19102;BMP280;9683;49.028;12.064;2022-11-11T02:37:42;98774.38;;;9.89
19102;BMP280;9683;49.028;12.064;2022-11-11T02:40:15;98779.69;;;9.89
19102;BMP280;9683;49.028;12.064;2022-11-11T02:42:42;98771.91;;;9.88
19102;BMP280;9683;49.028;12.064;2022-11-11T02:45:08;98766.22;;;9.91
19102;BMP280;9683;49.028;12.064;2022-11-11T02:47:35;98758.63;;;9.88
19102;BMP280;9683;49.028;12.064;2022-11-11T02:50:02;98758.34;;;9.83
19102;BMP280;9683;49.028;12.064;2022-11-11T02:52:29;98771.53;;;9.76
19102;BMP280;9683;49.028;12.064;2022-11-11T02:54:56;98761.59;;;9.70
19102;BMP280;9683;49.028;12.064;2022-11-11T02:57:24;98750.50;;;9.66
19102;BMP280;9683;49.028;12.064;2022-11-11T02:59:51;98760.00;;;9.61
19102;BMP280;9683;49.028;12.064;2022-11-11T03:02:18;98767.97;;;9.61
19102;BMP280;9683;49.028;12.064;2022-11-11T03:04:44;98772.13;;;9.63
19102;BMP280;9683;49.028;12.064;2022-11-11T03:07:11;98776.09;;;9.68
19102;BMP280;9683;49.028;12.064;2022-11-11T03:09:38;98777.53;;;9.70
19102;BMP280;9683;49.028;12.064;2022-11-11T03:12:04;98776.72;;;9.70
19102;BMP280;9683;49.028;12.064;2022-11-11T03:14:32;98767.38;;;9.74
19102;BMP280;9683;49.028;12.064;2022-11-11T03:16:59;98768.22;;;9.74
19102;BMP280;9683;49.028;12.064;2022-11-11T03:19:43;98767.00;;;9.77
19102;BMP280;9683;49.028;12.064;2022-11-11T03:22:10;98767.00;;;9.77
19102;BMP280;9683;49.028;12.064;2022-11-11T03:24:36;98769.34;;;9.80
19102;BMP280;9683;49.028;12.064;2022-11-11T03:27:20;98770.88;;;9.74
19102;BMP280;9683;49.028;12.064;2022-11-11T03:29:48;98778.53;;;9.69
19102;BMP280;9683;49.028;12.064;2022-11-11T03:32:14;98785.06;;;9.66
19102;BMP280;9683;49.028;12.064;2022-11-11T03:34:41;98781.72;;;9.64
19102;BMP280;9683;49.028;12.064;2022-11-11T03:37:10;98780.72;;;9.65
19102;BMP280;9683;49.028;12.064;2022-11-11T03:39:54;98784.22;;;9.66
19102;BMP280;9683;49.028;12.064;2022-11-11T03:42:21;98775.25;;;9.67
19102;BMP280;9683;49.028;12.064;2022-11-11T03:44:49;98775.34;;;9.74
19102;BMP280;9683;49.028;12.064;2022-11-11T03:47:15;98782.31;;;9.75
19102;BMP280;9683;49.028;12.064;2022-11-11T03:49:42;98786.66;;;9.76
19102;BMP280;9683;49.028;12.064;2022-11-11T03:52:11;98784.63;;;9.78
19102;BMP280;9683;49.028;12.064;2022-11-11T03:54:38;98783.25;;;9.82
19102;BMP280;9683;49.028;12.064;2022-11-11T03:57:05;98790.22;;;9.83
19102;BMP280;9683;49.028;12.064;2022-11-11T03:59:50;98792.06;;;9.82
19102;BMP280;9683;49.028;12.064;2022-11-11T04:02:17;98798.09;;;9.76
19102;BMP280;9683;49.028;12.064;2022-11-11T04:05:01;98813.41;;;9.74
19102;BMP280;9683;49.028;12.064;2022-11-11T04:07:45;98808.44;;;9.71
19102;BMP280;9683;49.028;12.064;2022-11-11T04:10:29;98808.44;;;9.71
19102;BMP280;9683;49.028;12.064;2022-11-11T04:12:57;98809.06;;;9.73
19102;BMP280;9683;49.028;12.064;2022-11-11T04:15:43;98799.09;;;9.75
19102;BMP280;9683;49.028;12.064;2022-11-11T04:18:27;98799.28;;;9.74
19102;BMP280;9683;49.028;12.064;2022-11-11T04:21:11;98798.44;;;9.73
19102;BMP280;9683;49.028;12.064;2022-11-11T04:23:55;98783.31;;;9.74
19102;BMP280;9683;49.028;12.064;2022-11-11T04:26:22;98792.50;;;9.71
19102;BMP280;9683;49.028;12.064;2022-11-11T04:28:48;98796.06;;;9.63
19102;BMP280;9683;49.028;12.064;2022-11-11T04:31:33;98792.09;;;9.59
19102;BMP280;9683;49.028;12.064;2022-11-11T04:33:59;98794.97;;;9.50
19102;BMP280;9683;49.028;12.064;2022-11-11T04:36:25;98792.00;;;9.45
19102;BMP280;9683;49.028;12.064;2022-11-11T04:38:52;98791.03;;;9.46
19102;BMP280;9683;49.028;12.064;2022-11-11T04:41:36;98791.66;;;9.48
19102;BMP280;9683;49.028;12.064;2022-11-11T04:44:03;98795.81;;;9.50
19102;BMP280;9683;49.028;12.064;2022-11-11T04:46:49;98797.09;;;9.54
19102;BMP280;9683;49.028;12.064;2022-11-11T04:49:16;98794.63;;;9.53
19102;BMP280;9683;49.028;12.064;2022-11-11T04:51:42;98789.47;;;9.51
19102;BMP280;9683;49.028;12.064;2022-11-11T04:54:26;98793.47;;;9.47
19102;BMP280;9683;49.028;12.064;2022-11-11T04:56:53;98807.50;;;9.41
19102;BMP280;9683;49.028;12.064;2022-11-11T04:59:19;98802.34;;;9.40
19102;BMP280;9683;49.028;12.064;2022-11-11T05:01:45;98815.00;;;9.38
19102;BMP280;9683;49.028;12.064;2022-11-11T05:04:31;98811.03;;;9.34
19102;BMP280;9683;49.028;12.064;2022-11-11T05:06:57;98828.94;;;9.32
19102;BMP280;9683;49.028;12.064;2022-11-11T05:09:42;98814.84;;;9.31
19102;BMP280;9683;49.028;12.064;2022-11-11T05:12:08;98824.84;;;9.29
19102;BMP280;9683;49.028;12.064;2022-11-11T05:14:35;98829.31;;;9.29
19102;BMP280;9683;49.028;12.064;2022-11-11T05:17:19;98831.13;;;9.28
19102;BMP280;9683;49.028;12.064;2022-11-11T05:20:07;98830.31;;;9.28
19102;BMP280;9683;49.028;12.064;2022-11-11T05:22:51;98836.81;;;9.25
19102;BMP280;9683;49.028;12.064;2022-11-11T05:25:17;98842.75;;;9.27
19102;BMP280;9683;49.028;12.064;2022-11-11T05:27:55;98847.91;;;9.29
19102;BMP280;9683;49.028;12.064;2022-11-11T05:30:23;98853.03;;;9.30
19102;BMP280;9683;49.028;12.064;2022-11-11T05:32:50;98843.91;;;9.33
19102;BMP280;9683;49.028;12.064;2022-11-11T05:35:18;98852.34;;;9.36
19102;BMP280;9683;49.028;12.064;2022-11-11T05:37:45;98850.50;;;9.37
19102;BMP280;9683;49.028;12.064;2022-11-11T05:40:33;98847.69;;;9.38
19102;BMP280;9683;49.028;12.064;2022-11-11T05:42:59;98852.19;;;9.38
19102;BMP280;9683;49.028;12.064;2022-11-11T05:45:26;98847.84;;;9.37
19102;BMP280;9683;49.028;12.064;2022-11-11T05:47:53;98859.47;;;9.36
19102;BMP280;9683;49.028;12.064;2022-11-11T05:50:21;98857.66;;;9.36
19102;BMP280;9683;49.028;12.064;2022-11-11T05:52:47;98851.69;;;9.34
19102;BMP280;9683;49.028;12.064;2022-11-11T05:55:14;98859.94;;;9.39
19102;BMP280;9683;49.028;12.064;2022-11-11T05:57:41;98857.28;;;9.39
19102;BMP280;9683;49.028;12.064;2022-11-11T06:00:09;98867.75;;;9.41
19102;BMP280;9683;49.028;12.064;2022-11-11T06:02:35;98876.38;;;9.43
19102;BMP280;9683;49.028;12.064;2022-11-11T06:05:06;98870.06;;;9.44
19102;BMP280;9683;49.028;12.064;2022-11-11T06:07:37;98876.88;;;9.46
19102;BMP280;9683;49.028;12.064;2022-11-11T06:10:05;98871.72;;;9.45
19102;BMP280;9683;49.028;12.064;2022-11-11T06:12:50;98872.72;;;9.44
19102;BMP280;9683;49.028;12.064;2022-11-11T06:15:33;98886.81;;;9.44
19102;BMP280;9683;49.028;12.064;2022-11-11T06:18:00;98885.16;;;9.43
19102;BMP280;9683;49.028;12.064;2022-11-11T06:20:27;98888.69;;;9.36
19102;BMP280;9683;49.028;12.064;2022-11-11T06:22:55;98892.34;;;9.35
19102;BMP280;9683;49.028;12.064;2022-11-11T06:25:22;98901.34;;;9.34
19102;BMP280;9683;49.028;12.064;2022-11-11T06:28:06;98895.00;;;9.35
19102;BMP280;9683;49.028;12.064;2022-11-11T06:30:32;98903.63;;;9.37
19102;BMP280;9683;49.028;12.064;2022-11-11T06:32:59;98901.81;;;9.37
19102;BMP280;9683;49.028;12.064;2022-11-11T06:35:26;98906.78;;;9.40
19102;BMP280;9683;49.028;12.064;2022-11-11T06:37:52;98913.56;;;9.43
19102;BMP280;9683;49.028;12.064;2022-11-11T06:40:20;98921.22;;;9.46
19102;BMP280;9683;49.028;12.064;2022-11-11T06:42:48;98918.34;;;9.47
19102;BMP280;9683;49.028;12.064;2022-11-11T06:45:15;98918.19;;;9.49
19102;BMP280;9683;49.028;12.064;2022-11-11T06:47:42;98920.50;;;9.52
19102;BMP280;9683;49.028;12.064;2022-11-11T06:50:09;98923.81;;;9.54
19102;BMP280;9683;49.028;12.064;2022-11-11T06:52:35;98923.00;;;9.53
19102;BMP280;9683;49.028;12.064;2022-11-11T06:55:02;98927.13;;;9.56
19102;BMP280;9683;49.028;12.064;2022-11-11T06:57:31;98921.47;;;9.59
19102;BMP280;9683;49.028;12.064;2022-11-11T06:59:58;98927.25;;;9.62
19102;BMP280;9683;49.028;12.064;2022-11-11T07:02:24;98918.09;;;9.65
19102;BMP280;9683;49.028;12.064;2022-11-11T07:04:51;98923.41;;;9.65
19102;BMP280;9683;49.028;12.064;2022-11-11T07:07:17;98914.13;;;9.61
19102;BMP280;9683;49.028;12.064;2022-11-11T07:09:44;98920.66;;;9.58
19102;BMP280;9683;49.028;12.064;2022-11-11T07:12:11;98914.97;;;9.61
19102;BMP280;9683;49.028;12.064;2022-11-11T07:14:39;98917.94;;;9.66
19102;BMP280;9683;49.028;12.064;2022-11-11T07:17:05;98926.38;;;9.70
19102;BMP280;9683;49.028;12.064;2022-11-11T07:19:32;98913.94;;;9.71
19102;BMP280;9683;49.028;12.064;2022-11-11T07:21:59;98909.78;;;9.68
19102;BMP280;9683;49.028;12.064;2022-11-11T07:24:25;98917.28;;;9.64
19102;BMP280;9683;49.028;12.064;2022-11-11T07:26:52;98919.97;;;9.56
19102;BMP280;9683;49.028;12.064;2022-11-11T07:29:19;98914.34;;;9.51
19102;BMP280;9683;49.028;12.064;2022-11-11T07:31:47;98913.19;;;9.54
19102;BMP280;9683;49.028;12.064;2022-11-11T07:34:15;98914.03;;;9.54
19102;BMP280;9683;49.028;12.064;2022-11-11T07:36:42;98917.69;;;9.53
19102;BMP280;9683;49.028;12.064;2022-11-11T07:39:08;98917.19;;;9.50
19102;BMP280;9683;49.028;12.064;2022-11-11T07:41:35;98903.59;;;9.45
19102;BMP280;9683;49.028;12.064;2022-11-11T07:44:02;98910.91;;;9.43
19102;BMP280;9683;49.028;12.064;2022-11-11T07:46:28;98897.66;;;9.35
19102;BMP280;9683;49.028;12.064;2022-11-11T07:48:56;98907.31;;;9.28
19102;BMP280;9683;49.028;12.064;2022-11-11T07:51:23;98903.53;;;9.22
19102;BMP280;9683;49.028;12.064;2022-11-11T07:53:49;98899.03;;;9.23
19102;BMP280;9683;49.028;12.064;2022-11-11T07:56:16;98910.97;;;9.27
19102;BMP280;9683;49.028;12.064;2022-11-11T07:58:42;98912.66;;;9.28
19102;BMP280;9683;49.028;12.064;2022-11-11T08:01:09;98918.28;;;9.33
19102;BMP280;9683;49.028;12.064;2022-11-11T08:03:36;98918.41;;;9.39
19102;BMP280;9683;49.028;12.064;2022-11-11T08:06:15;98924.03;;;9.44
19102;BMP280;9683;49.028;12.064;2022-11-11T08:08:42;98927.50;;;9.45
19102;BMP280;9683;49.028;12.064;2022-11-11T08:11:08;98924.34;;;9.49
19102;BMP280;9683;49.028;12.064;2022-11-11T08:13:35;98935.44;;;9.53
19102;BMP280;9683;49.028;12.064;2022-11-11T08:16:09;98923.81;;;9.54
19102;BMP280;9683;49.028;12.064;2022-11-11T08:18:36;98929.78;;;9.56
19102;BMP280;9683;49.028;12.064;2022-11-11T08:21:04;98935.91;;;9.56
19102;BMP280;9683;49.028;12.064;2022-11-11T08:23:32;98932.28;;;9.57
19102;BMP280;9683;49.028;12.064;2022-11-11T08:25:59;98926.94;;;9.57
19102;BMP280;9683;49.028;12.064;2022-11-11T08:28:26;98933.47;;;9.55
19102;BMP280;9683;49.028;12.064;2022-11-11T08:30:54;98932.94;;;9.59
19102;BMP280;9683;49.028;12.064;2022-11-11T08:33:21;98945.69;;;9.64
19102;BMP280;9683;49.028;12.064;2022-11-11T08:35:47;98944.00;;;9.71
19102;BMP280;9683;49.028;12.064;2022-11-11T08:38:15;98940.34;;;9.72
19102;BMP280;9683;49.028;12.064;2022-11-11T08:40:43;98944.47;;;9.75
19102;BMP280;9683;49.028;12.064;2022-11-11T08:43:10;98947.13;;;9.75
19102;BMP280;9683;49.028;12.064;2022-11-11T08:45:37;98944.00;;;9.71
19102;BMP280;9683;49.028;12.064;2022-11-11T08:48:04;98953.13;;;9.68
19102;BMP280;9683;49.028;12.064;2022-11-11T08:50:30;98957.63;;;9.68
19102;BMP280;9683;49.028;12.064;2022-11-11T08:52:58;98961.78;;;9.71
19102;BMP280;9683;49.028;12.064;2022-11-11T08:55:25;98958.97;;;9.72
19102;BMP280;9683;49.028;12.064;2022-11-11T08:57:58;98959.59;;;9.74
19102;BMP280;9683;49.028;12.064;2022-11-11T09:00:25;98954.63;;;9.71
19102;BMP280;9683;49.028;12.064;2022-11-11T09:02:51;98959.75;;;9.73
19102;BMP280;9683;49.028;12.064;2022-11-11T09:05:18;98963.25;;;9.73
19102;BMP280;9683;49.028;12.064;2022-11-11T09:07:45;98970.06;;;9.76
19102;BMP280;9683;49.028;12.064;2022-11-11T09:10:12;98976.22;;;9.76
19102;BMP280;9683;49.028;12.064;2022-11-11T09:12:38;98972.53;;;9.77
19102;BMP280;9683;49.028;12.064;2022-11-11T09:15:07;98974.34;;;9.77
19102;BMP280;9683;49.028;12.064;2022-11-11T09:17:33;98978.66;;;9.78
19102;BMP280;9683;49.028;12.064;2022-11-11T09:20:00;98975.03;;;9.79
19102;BMP280;9683;49.028;12.064;2022-11-11T09:22:27;98973.00;;;9.81
19102;BMP280;9683;49.028;12.064;2022-11-11T09:24:53;98975.34;;;9.84
19102;BMP280;9683;49.028;12.064;2022-11-11T09:27:20;98977.63;;;9.87
19102;BMP280;9683;49.028;12.064;2022-11-11T09:29:47;98975.66;;;9.89
19102;BMP280;9683;49.028;12.064;2022-11-11T09:32:15;98972.78;;;9.90
19102;BMP280;9683;49.028;12.064;2022-11-11T09:34:42;98977.75;;;9.93
19102;BMP280;9683;49.028;12.064;2022-11-11T09:37:08;98975.91;;;9.94
19102;BMP280;9683;49.028;12.064;2022-11-11T09:39:35;98988.06;;;9.96
19102;BMP280;9683;49.028;12.064;2022-11-11T09:42:09;98982.03;;;10.02
19102;BMP280;9683;49.028;12.064;2022-11-11T09:45:10;98974.56;;;9.98
19102;BMP280;9683;49.028;12.064;2022-11-11T09:47:47;98974.56;;;9.98
19102;BMP280;9683;49.028;12.064;2022-11-11T09:50:19;98978.91;;;9.99
19102;BMP280;9683;49.028;12.064;2022-11-11T09:52:51;98990.19;;;10.01
19102;BMP280;9683;49.028;12.064;2022-11-11T09:55:21;98990.69;;;10.04
19102;BMP280;9683;49.028;12.064;2022-11-11T09:57:52;98993.81;;;10.08
19102;BMP280;9683;49.028;12.064;2022-11-11T10:00:25;99001.25;;;10.12
19102;BMP280;9683;49.028;12.064;2022-11-11T10:02:54;99003.59;;;10.16
19102;BMP280;9683;49.028;12.064;2022-11-11T10:05:25;99000.56;;;10.19
19102;BMP280;9683;49.028;12.064;2022-11-11T10:07:55;98991.59;;;10.20
19102;BMP280;9683;49.028;12.064;2022-11-11T10:10:29;98998.06;;;10.25
19102;BMP280;9683;49.028;12.064;2022-11-11T10:13:00;98992.56;;;10.27
19102;BMP280;9683;49.028;12.064;2022-11-11T10:15:32;98989.53;;;10.30
19102;BMP280;9683;49.028;12.064;2022-11-11T10:18:20;98988.81;;;10.36
19102;BMP280;9683;49.028;12.064;2022-11-11T10:20:54;98990.13;;;10.40
19102;BMP280;9683;49.028;12.064;2022-11-11T10:23:24;98988.28;;;10.40
19102;BMP280;9683;49.028;12.064;2022-11-11T10:25:53;98999.41;;;10.44
19102;BMP280;9683;49.028;12.064;2022-11-11T10:28:21;99000.06;;;10.46
19102;BMP280;9683;49.028;12.064;2022-11-11T10:30:50;98996.88;;;10.50
19102;BMP280;9683;49.028;12.064;2022-11-11T10:33:23;98991.03;;;10.55
19102;BMP280;9683;49.028;12.064;2022-11-11T10:35:54;98986.16;;;10.58
19102;BMP280;9683;49.028;12.064;2022-11-11T10:38:30;98985.25;;;10.66
19102;BMP280;9683;49.028;12.064;2022-11-11T10:41:05;98984.34;;;10.74
19102;BMP280;9683;49.028;12.064;2022-11-11T10:43:35;98975.00;;;10.78
19102;BMP280;9683;49.028;12.064;2022-11-11T10:46:04;98966.84;;;10.79
19102;BMP280;9683;49.028;12.064;2022-11-11T10:48:42;98971.53;;;10.77
19102;BMP280;9683;49.028;12.064;2022-11-11T10:51:10;98967.00;;;10.78
19102;BMP280;9683;49.028;12.064;2022-11-11T10:53:41;98967.00;;;10.78
19102;BMP280;9683;49.028;12.064;2022-11-11T10:56:15;98961.53;;;10.79
19102;BMP280;9683;49.028;12.064;2022-11-11T10:58:48;98950.88;;;10.79
19102;BMP280;9683;49.028;12.064;2022-11-11T11:01:24;98940.88;;;10.81
19102;BMP280;9683;49.028;12.064;2022-11-11T11:03:57;98941.69;;;10.82
19102;BMP280;9683;49.028;12.064;2022-11-11T11:06:27;98942.88;;;10.79
19102;BMP280;9683;49.028;12.064;2022-11-11T11:08:57;98943.34;;;10.83
19102;BMP280;9683;49.028;12.064;2022-11-11T11:11:29;98939.97;;;10.89
19102;BMP280;9683;49.028;12.064;2022-11-11T11:13:59;98947.22;;;10.95
19102;BMP280;9683;49.028;12.064;2022-11-11T11:16:30;98955.31;;;11.01
19102;BMP280;9683;49.028;12.064;2022-11-11T11:19:16;98955.22;;;11.10
19102;BMP280;9683;49.028;12.064;2022-11-11T11:21:51;98961.47;;;11.17
19102;BMP280;9683;49.028;12.064;2022-11-11T11:24:19;98964.97;;;11.17
19102;BMP280;9683;49.028;12.064;2022-11-11T11:26:47;98966.44;;;11.20
19102;BMP280;9683;49.028;12.064;2022-11-11T11:29:23;98960.75;;;11.23
19102;BMP280;9683;49.028;12.064;2022-11-11T11:31:51;98961.22;;;11.26
19102;BMP280;9683;49.028;12.064;2022-11-11T11:34:19;98961.66;;;11.30
19102;BMP280;9683;49.028;12.064;2022-11-11T11:36:58;98959.44;;;11.33
19102;BMP280;9683;49.028;12.064;2022-11-11T11:39:33;98962.78;;;11.35
19102;BMP280;9683;49.028;12.064;2022-11-11T11:42:00;98965.06;;;11.38
19102;BMP280;9683;49.028;12.064;2022-11-11T11:44:28;98962.84;;;11.42
19102;BMP280;9683;49.028;12.064;2022-11-11T11:47:03;98959.00;;;11.44
19102;BMP280;9683;49.028;12.064;2022-11-11T11:49:43;98950.53;;;11.41
19102;BMP280;9683;49.028;12.064;2022-11-11T11:52:19;98938.84;;;11.42
19102;BMP280;9683;49.028;12.064;2022-11-11T11:54:53;98942.34;;;11.42
19102;BMP280;9683;49.028;12.064;2022-11-11T11:57:34;98937.19;;;11.41
19102;BMP280;9683;49.028;12.064;2022-11-11T12:00:11;98932.06;;;11.39
19102;BMP280;9683;49.028;12.064;2022-11-11T12:02:55;98943.28;;;11.35
19102;BMP280;9683;49.028;12.064;2022-11-11T12:05:33;98942.44;;;11.34
19102;BMP280;9683;49.028;12.064;2022-11-11T12:08:18;98950.91;;;11.38
19102;BMP280;9683;49.028;12.064;2022-11-11T12:10:56;98946.22;;;11.40
19102;BMP280;9683;49.028;12.064;2022-11-11T12:13:34;98948.53;;;11.43
19102;BMP280;9683;49.028;12.064;2022-11-11T12:16:23;98943.00;;;11.44
19102;BMP280;9683;49.028;12.064;2022-11-11T12:19:04;98939.31;;;11.45
19102;BMP280;9683;49.028;12.064;2022-11-11T12:21:41;98942.81;;;11.46
19102;BMP280;9683;49.028;12.064;2022-11-11T12:24:21;98926.81;;;11.46
19102;BMP280;9683;49.028;12.064;2022-11-11T12:27:00;98931.97;;;11.47
19102;BMP280;9683;49.028;12.064;2022-11-11T12:29:41;98929.31;;;11.47
19102;BMP280;9683;49.028;12.064;2022-11-11T12:32:27;98936.09;;;11.50
19102;BMP280;9683;49.028;12.064;2022-11-11T12:35:10;98929.75;;;11.51
19102;BMP280;9683;49.028;12.064;2022-11-11T12:37:47;98926.25;;;11.50
19102;BMP280;9683;49.028;12.064;2022-11-11T12:40:23;98924.41;;;11.51
19102;BMP280;9683;49.028;12.064;2022-11-11T12:43:01;98927.75;;;11.53
19102;BMP280;9683;49.028;12.064;2022-11-11T12:45:38;98926.72;;;11.54
19102;BMP280;9683;49.028;12.064;2022-11-11T12:48:23;98922.88;;;11.57
19102;BMP280;9683;49.028;12.064;2022-11-11T12:50:59;98927.16;;;11.58
19102;BMP280;9683;49.028;12.064;2022-11-11T12:53:36;98928.44;;;11.62
19102;BMP280;9683;49.028;12.064;2022-11-11T12:56:15;98925.41;;;11.65
19102;BMP280;9683;49.028;12.064;2022-11-11T12:58:49;98930.75;;;11.65
19102;BMP280;9683;49.028;12.064;2022-11-11T13:01:24;98926.88;;;11.67
19102;BMP280;9683;49.028;12.064;2022-11-11T13:04:07;98922.19;;;11.69
19102;BMP280;9683;49.028;12.064;2022-11-11T13:06:51;98921.38;;;11.69
19102;BMP280;9683;49.028;12.064;2022-11-11T13:09:34;98916.13;;;11.61
19102;BMP280;9683;49.028;12.064;2022-11-11T13:12:06;98917.31;;;11.58
19102;BMP280;9683;49.028;12.064;2022-11-11T13:14:44;98905.66;;;11.59
19102;BMP280;9683;49.028;12.064;2022-11-11T13:17:12;98915.94;;;11.62
19102;BMP280;9683;49.028;12.064;2022-11-11T13:19:44;98906.94;;;11.63
19102;BMP280;9683;49.028;12.064;2022-11-11T13:22:20;98910.53;;;11.56
19102;BMP280;9683;49.028;12.064;2022-11-11T13:24:49;98928.75;;;11.52
19102;BMP280;9683;49.028;12.064;2022-11-11T13:27:25;98924.03;;;11.54
19102;BMP280;9683;49.028;12.064;2022-11-11T13:30:09;98919.53;;;11.55
19102;BMP280;9683;49.028;12.064;2022-11-11T13:32:39;98911.38;;;11.56
19102;BMP280;9683;49.028;12.064;2022-11-11T13:35:20;98918.59;;;11.62
19102;BMP280;9683;49.028;12.064;2022-11-11T13:37:47;98916.97;;;11.61
19102;BMP280;9683;49.028;12.064;2022-11-11T13:40:31;98913.28;;;11.62
19102;BMP280;9683;49.028;12.064;2022-11-11T13:42:59;98918.34;;;11.57
19102;BMP280;9683;49.028;12.064;2022-11-11T13:45:27;98916.50;;;11.58
19102;BMP280;9683;49.028;12.064;2022-11-11T13:47:56;98922.31;;;11.61
19102;BMP280;9683;49.028;12.064;2022-11-11T13:50:25;98922.94;;;11.63
19102;BMP280;9683;49.028;12.064;2022-11-11T13:52:56;98920.53;;;11.68
19102;BMP280;9683;49.028;12.064;2022-11-11T13:55:30;98921.00;;;11.72
19102;BMP280;9683;49.028;12.064;2022-11-11T13:57:58;98924.31;;;11.74
19102;BMP280;9683;49.028;12.064;2022-11-11T14:00:34;98926.63;;;11.77
19102;BMP280;9683;49.028;12.064;2022-11-11T14:03:29;98930.09;;;11.77
19102;BMP280;9683;49.028;12.064;2022-11-11T14:06:28;98921.09;;;11.78
19102;BMP280;9683;49.028;12.064;2022-11-11T14:08:55;98926.88;;;11.82
19102;BMP280;9683;49.028;12.064;2022-11-11T14:11:31;98928.34;;;11.84
19102;BMP280;9683;49.028;12.064;2022-11-11T14:17:04;98936.34;;;11.84
19102;BMP280;9683;49.028;12.064;2022-11-11T14:19:37;98924.22;;;11.82
19102;BMP280;9683;49.028;12.064;2022-11-11T14:22:27;98915.81;;;11.85
19102;BMP280;9683;49.028;12.064;2022-11-11T14:24:54;98912.34;;;11.84
19102;BMP280;9683;49.028;12.064;2022-11-11T14:27:26;98914.16;;;11.84
19102;BMP280;9683;49.028;12.064;2022-11-11T14:29:54;98925.03;;;11.82
19102;BMP280;9683;49.028;12.064;2022-11-11T14:32:37;98927.88;;;11.81
19102;BMP280;9683;49.028;12.064;2022-11-11T14:35:14;98921.34;;;11.83
19102;BMP280;9683;49.028;12.064;2022-11-11T14:37:59;98921.34;;;11.83
19102;BMP280;9683;49.028;12.064;2022-11-11T14:40:30;98924.41;;;11.80
19102;BMP280;9683;49.028;12.064;2022-11-11T14:42:59;98920.06;;;11.79
19102;BMP280;9683;49.028;12.064;2022-11-11T14:45:59;98926.63;;;11.77